createdAt,value
2022-10-20T00:01:16.880Z,79.33
2022-10-20T00:03:46.165Z,79.72
2022-10-20T00:06:19.173Z,79.64
2022-10-20T00:08:47.875Z,79.46
2022-10-20T00:11:18.327Z,79.39
2022-10-20T00:13:48.549Z,79.40
2022-10-20T00:16:17.191Z,79.25
2022-10-20T00:18:45.483Z,79.21
2022-10-20T00:21:17.363Z,79.18
2022-10-20T00:23:45.740Z,79.21
2022-10-20T00:26:20.007Z,79.39
2022-10-20T00:28:48.174Z,79.54
2022-10-20T00:31:21.434Z,79.73
2022-10-20T00:34:03.775Z,79.84
2022-10-20T00:36:31.951Z,80.01
2022-10-20T00:39:01.733Z,79.97
2022-10-20T00:41:30.520Z,80.07
2022-10-20T00:44:36.551Z,79.83
2022-10-20T00:47:04.694Z,79.83
2022-10-20T00:49:32.919Z,79.76
2022-10-20T00:52:00.930Z,79.76
2022-10-20T00:54:29.121Z,79.92
2022-10-20T00:56:59.250Z,79.93
2022-10-20T00:59:31.832Z,80.13
2022-10-20T01:02:02.478Z,80.11
2022-10-20T01:04:32.143Z,80.09
2022-10-20T01:07:00.493Z,79.98
2022-10-20T01:09:28.972Z,79.90
2022-10-20T01:12:20.030Z,79.93
2022-10-20T01:14:48.200Z,79.82
2022-10-20T01:17:46.947Z,79.58
2022-10-20T01:20:36.964Z,79.65
2022-10-20T01:23:25.000Z,79.65
2022-10-20T01:26:22.009Z,79.71
2022-10-20T01:28:58.926Z,79.78
2022-10-20T01:31:35.265Z,79.95
2022-10-20T01:34:18.566Z,79.82
2022-10-20T01:36:55.765Z,79.88
2022-10-20T01:39:27.174Z,79.86
2022-10-20T01:42:07.667Z,79.77
2022-10-20T01:44:38.941Z,79.59
2022-10-20T01:47:10.010Z,79.93
2022-10-20T01:49:38.171Z,79.84
2022-10-20T01:52:06.490Z,79.91
2022-10-20T01:54:34.888Z,79.87
2022-10-20T01:57:12.248Z,79.67
2022-10-20T01:59:42.891Z,79.74
2022-10-20T02:03:25.560Z,79.78
2022-10-20T02:06:19.608Z,79.82
2022-10-20T02:10:28.066Z,79.62
2022-10-20T02:13:00.933Z,79.67
2022-10-20T02:15:31.860Z,79.63
2022-10-20T02:18:03.701Z,79.53
2022-10-20T02:20:32.852Z,79.86
2022-10-20T02:23:05.014Z,79.91
2022-10-20T02:25:34.071Z,79.98
2022-10-20T02:28:04.050Z,79.97
2022-10-20T02:30:32.886Z,79.95
2022-10-20T02:33:01.434Z,79.80
2022-10-20T02:35:31.551Z,79.90
2022-10-20T02:38:00.175Z,80.00
2022-10-20T02:40:28.502Z,79.95
2022-10-20T02:42:56.555Z,79.88
2022-10-20T02:45:24.636Z,79.73
2022-10-20T02:47:52.696Z,79.60
2022-10-20T02:50:20.763Z,79.73
2022-10-20T02:52:48.729Z,79.68
2022-10-20T02:57:49.869Z,79.77
2022-10-20T03:00:18.006Z,79.88
2022-10-20T03:02:46.135Z,79.37
2022-10-20T03:05:14.664Z,79.27
2022-10-20T03:07:42.772Z,79.45
2022-10-20T03:10:10.747Z,79.74
2022-10-20T03:12:38.835Z,79.78
2022-10-20T03:15:07.501Z,79.83
2022-10-20T03:17:35.703Z,79.94
2022-10-20T03:20:04.973Z,79.98
2022-10-20T03:22:33.065Z,80.02
2022-10-20T03:25:01.035Z,80.03
2022-10-20T03:27:29.084Z,79.94
2022-10-20T03:29:57.227Z,79.97
2022-10-20T03:32:25.503Z,79.86
2022-10-20T03:34:53.550Z,79.89
2022-10-20T03:37:21.835Z,79.83
2022-10-20T03:39:49.799Z,79.73
2022-10-20T03:42:18.155Z,79.77
2022-10-20T03:44:46.497Z,79.61
2022-10-20T03:47:14.481Z,79.76
2022-10-20T03:49:42.661Z,79.71
2022-10-20T03:52:10.790Z,79.63
2022-10-20T03:54:40.831Z,79.66
2022-10-20T03:57:08.944Z,79.65
2022-10-20T03:59:37.315Z,79.63
2022-10-20T04:02:05.475Z,79.74
2022-10-20T04:04:33.766Z,79.75
2022-10-20T04:07:02.214Z,79.71
2022-10-20T04:09:30.452Z,79.78
2022-10-20T04:11:58.402Z,79.74
2022-10-20T04:14:26.556Z,79.85
2022-10-20T04:16:54.509Z,79.86
2022-10-20T04:19:22.620Z,79.81
2022-10-20T04:21:51.144Z,79.95
2022-10-20T04:24:19.276Z,79.77
2022-10-20T04:29:22.120Z,79.37
2022-10-20T04:31:50.330Z,79.33
2022-10-20T04:34:18.300Z,79.67
2022-10-20T04:36:46.536Z,79.70
2022-10-20T04:39:14.822Z,79.71
2022-10-20T04:41:43.038Z,79.58
2022-10-20T04:44:11.166Z,79.56
2022-10-20T04:46:39.422Z,79.55
2022-10-20T04:49:07.797Z,79.48
2022-10-20T04:51:36.387Z,79.39
2022-10-20T04:56:33.637Z,79.35
2022-10-20T04:59:01.775Z,79.39
2022-10-20T05:01:31.525Z,79.39
2022-10-20T05:03:59.550Z,79.53
2022-10-20T05:06:32.825Z,79.60
2022-10-20T05:09:03.370Z,79.60
2022-10-20T05:11:35.350Z,79.52
2022-10-20T05:14:04.178Z,79.37
2022-10-20T05:16:32.282Z,79.34
2022-10-20T05:19:00.715Z,79.17
2022-10-20T05:21:31.222Z,79.49
2022-10-20T05:24:01.950Z,79.35
2022-10-20T05:26:34.731Z,79.36
2022-10-20T05:29:07.757Z,79.48
2022-10-20T05:31:41.370Z,79.68
2022-10-20T05:34:11.094Z,79.83
2022-10-20T05:36:39.252Z,79.94
2022-10-20T05:39:07.232Z,79.92
2022-10-20T05:41:38.706Z,79.83
2022-10-20T05:44:11.724Z,79.91
2022-10-20T05:46:41.933Z,79.81
2022-10-20T05:49:14.178Z,79.79
2022-10-20T05:51:42.624Z,80.06
2022-10-20T05:54:12.794Z,80.29
2022-10-20T05:56:41.419Z,80.21
2022-10-20T05:59:10.520Z,80.40
2022-10-20T06:01:41.285Z,80.45
2022-10-20T06:04:09.304Z,80.38
2022-10-20T06:06:37.671Z,80.28
2022-10-20T06:09:07.850Z,80.15
2022-10-20T06:11:39.237Z,80.26
2022-10-20T06:14:09.753Z,79.98
2022-10-20T06:16:38.569Z,80.08
2022-10-20T06:19:07.307Z,80.57
2022-10-20T06:21:36.967Z,80.93
2022-10-20T06:24:06.010Z,81.04
2022-10-20T06:26:36.779Z,81.01
2022-10-20T06:29:07.180Z,80.91
2022-10-20T06:31:39.182Z,80.74
2022-10-20T06:34:10.004Z,80.77
2022-10-20T06:36:40.006Z,80.63
2022-10-20T06:39:12.660Z,81.00
2022-10-20T06:41:42.534Z,81.57
2022-10-20T06:44:12.904Z,81.63
2022-10-20T06:46:41.116Z,81.66
2022-10-20T06:49:11.642Z,81.54
2022-10-20T06:51:39.813Z,81.63
2022-10-20T06:54:08.059Z,81.89
2022-10-20T06:56:37.242Z,82.33
2022-10-20T06:59:05.782Z,82.26
2022-10-20T07:01:36.389Z,82.55
2022-10-20T07:04:07.292Z,82.48
2022-10-20T07:06:39.419Z,82.73
2022-10-20T07:09:09.423Z,82.91
2022-10-20T07:11:37.602Z,82.66
2022-10-20T07:14:05.962Z,82.24
2022-10-20T07:16:35.046Z,82.06
2022-10-20T07:19:05.214Z,82.00
2022-10-20T07:21:37.301Z,82.06
2022-10-20T07:24:07.325Z,81.89
2022-10-20T07:26:39.197Z,82.00
2022-10-20T07:29:07.456Z,82.07
2022-10-20T07:31:41.828Z,82.38
2022-10-20T07:34:28.129Z,82.57
2022-10-20T07:36:57.647Z,82.49
2022-10-20T07:39:26.779Z,82.52
2022-10-20T07:41:54.879Z,82.65
2022-10-20T07:44:23.297Z,82.49
2022-10-20T07:46:51.774Z,82.63
2022-10-20T07:52:08.063Z,82.71
2022-10-20T07:54:36.286Z,83.18
2022-10-20T07:57:04.421Z,83.57
2022-10-20T07:59:32.690Z,83.66
2022-10-20T08:02:00.928Z,83.63
2022-10-20T08:04:31.654Z,83.52
2022-10-20T08:07:00.473Z,83.94
2022-10-20T08:09:28.714Z,83.82
2022-10-20T08:11:56.832Z,83.64
2022-10-20T08:14:27.523Z,83.35
2022-10-20T08:17:02.225Z,83.17
2022-10-20T08:19:39.030Z,82.90
2022-10-20T08:22:07.033Z,82.78
2022-10-20T08:24:35.724Z,82.63
2022-10-20T08:27:03.989Z,82.71
2022-10-20T08:29:32.502Z,82.47
2022-10-20T08:32:00.731Z,82.43
2022-10-20T08:34:28.749Z,81.87
2022-10-20T08:36:56.775Z,82.10
2022-10-20T08:39:25.349Z,82.12
2022-10-20T08:42:07.484Z,81.75
2022-10-20T08:44:40.531Z,81.34
2022-10-20T08:47:33.657Z,80.67
2022-10-20T08:50:09.557Z,80.60
2022-10-20T08:52:40.692Z,80.16
2022-10-20T08:55:19.268Z,79.95
2022-10-20T08:57:49.336Z,80.01
2022-10-20T09:00:22.958Z,79.62
2022-10-20T09:02:51.380Z,79.40
2022-10-20T09:05:24.940Z,79.37
2022-10-20T09:07:54.931Z,78.83
2022-10-20T09:10:33.929Z,78.63
2022-10-20T09:13:03.326Z,78.01
2022-10-20T09:15:32.210Z,77.69
2022-10-20T09:18:06.509Z,78.12
2022-10-20T09:20:51.176Z,78.06
2022-10-20T09:23:39.858Z,78.02
2022-10-20T09:26:24.947Z,76.69
2022-10-20T09:29:15.165Z,76.53
2022-10-20T09:31:49.918Z,76.46
2022-10-20T09:34:30.237Z,75.99
2022-10-20T09:37:04.701Z,75.60
2022-10-20T09:39:42.900Z,75.94
2022-10-20T09:42:18.605Z,75.87
2022-10-20T09:44:53.589Z,75.52
2022-10-20T09:47:24.202Z,75.17
2022-10-20T09:50:00.898Z,74.39
2022-10-20T09:52:35.018Z,74.50
2022-10-20T09:55:16.419Z,74.54
2022-10-20T09:57:48.920Z,73.86
2022-10-20T10:00:37.281Z,73.84
2022-10-20T10:03:10.313Z,73.43
2022-10-20T10:05:38.386Z,73.58
2022-10-20T10:08:14.177Z,73.39
2022-10-20T10:10:45.194Z,73.21
2022-10-20T10:13:26.512Z,73.05
2022-10-20T10:16:04.127Z,72.45
2022-10-20T10:18:32.983Z,72.82
2022-10-20T10:21:14.354Z,72.87
2022-10-20T10:24:11.503Z,72.80
2022-10-20T10:26:46.245Z,72.29
2022-10-20T10:29:28.643Z,71.97
2022-10-20T10:32:24.933Z,71.77
2022-10-20T10:35:11.888Z,71.52
2022-10-20T10:37:43.281Z,70.49
2022-10-20T10:40:22.346Z,70.39
2022-10-20T10:42:59.651Z,70.35
2022-10-20T10:45:46.021Z,70.78
2022-10-20T10:50:54.185Z,69.75
2022-10-20T10:53:49.451Z,70.40
2022-10-20T10:56:42.422Z,68.97
2022-10-20T10:59:23.365Z,68.96
2022-10-20T11:02:14.188Z,69.11
2022-10-20T11:05:13.076Z,68.27
2022-10-20T11:10:25.419Z,68.34
2022-10-20T11:13:16.296Z,68.90
2022-10-20T11:16:16.856Z,68.85
2022-10-20T11:18:44.944Z,68.78
2022-10-20T11:21:29.195Z,68.97
2022-10-20T11:24:21.049Z,68.77
2022-10-20T11:26:54.648Z,69.37
2022-10-20T11:30:05.361Z,68.82
2022-10-20T11:32:51.082Z,69.24
2022-10-20T11:35:28.123Z,69.68
2022-10-20T11:38:21.001Z,69.63
2022-10-20T11:40:55.248Z,69.54
2022-10-20T11:43:32.699Z,69.03
2022-10-20T11:46:08.282Z,68.86
2022-10-20T11:48:50.918Z,68.26
2022-10-20T11:51:28.246Z,68.11
2022-10-20T11:54:14.627Z,67.52
2022-10-20T11:57:04.454Z,67.12
2022-10-20T11:59:44.627Z,67.09
2022-10-20T12:02:19.221Z,67.25
2022-10-20T12:05:05.895Z,66.96
2022-10-20T12:07:51.536Z,66.74
2022-10-20T12:10:35.152Z,66.87
2022-10-20T12:13:30.405Z,66.67
2022-10-20T12:15:58.865Z,67.11
2022-10-20T12:18:28.860Z,67.24
2022-10-20T12:21:02.358Z,67.02
2022-10-20T12:23:42.778Z,66.79
2022-10-20T12:26:29.644Z,66.51
2022-10-20T12:28:58.412Z,66.23
2022-10-20T12:32:05.018Z,66.27
2022-10-20T12:34:41.961Z,66.28
2022-10-20T12:37:30.315Z,66.09
2022-10-20T12:40:07.448Z,66.52
2022-10-20T12:42:48.944Z,66.01
2022-10-20T12:45:20.002Z,66.48
2022-10-20T12:47:50.162Z,66.88
2022-10-20T12:50:34.228Z,66.85
2022-10-20T12:53:17.494Z,66.70
2022-10-20T12:55:54.133Z,66.37
2022-10-20T12:58:22.504Z,66.30
2022-10-20T13:00:50.824Z,66.03
2022-10-20T13:03:39.540Z,66.23
2022-10-20T13:06:30.240Z,66.17
2022-10-20T13:09:21.383Z,65.87
2022-10-20T13:12:00.958Z,66.00
2022-10-20T13:14:44.520Z,66.05
2022-10-20T13:17:20.503Z,66.27
2022-10-20T13:20:01.480Z,66.06
2022-10-20T13:22:46.813Z,66.21
2022-10-20T13:25:33.999Z,66.07
2022-10-20T13:28:12.387Z,66.10
2022-10-20T13:30:59.953Z,66.00
2022-10-20T13:34:02.519Z,66.15
2022-10-20T13:37:01.319Z,66.61
2022-10-20T13:39:51.269Z,66.21
2022-10-20T13:42:31.532Z,66.24
2022-10-20T13:45:24.635Z,66.35
2022-10-20T13:48:08.354Z,66.33
2022-10-20T13:50:43.166Z,66.46
2022-10-20T13:53:26.201Z,66.57
2022-10-20T13:55:57.036Z,66.42
2022-10-20T13:58:26.047Z,66.78
2022-10-20T14:01:06.545Z,67.04
2022-10-20T14:03:43.517Z,67.08
2022-10-20T14:06:27.136Z,66.90
2022-10-20T14:08:56.840Z,67.07
2022-10-20T14:11:31.492Z,67.24
2022-10-20T14:14:01.995Z,67.34
2022-10-20T14:16:32.011Z,67.54
2022-10-20T14:19:09.405Z,67.49
2022-10-20T14:21:46.907Z,67.57
2022-10-20T14:24:30.674Z,67.61
2022-10-20T14:27:00.761Z,67.49
2022-10-20T14:29:35.169Z,67.57
2022-10-20T14:32:05.062Z,67.56
2022-10-20T14:34:36.867Z,67.72
2022-10-20T14:37:20.343Z,67.60
2022-10-20T14:39:50.787Z,67.69
2022-10-20T14:42:31.421Z,67.77
2022-10-20T14:45:02.682Z,67.93
2022-10-20T14:47:49.672Z,67.95
2022-10-20T14:50:24.016Z,68.14
2022-10-20T14:52:54.218Z,68.20
2022-10-20T14:55:39.767Z,68.24
2022-10-20T14:58:35.202Z,68.60
2022-10-20T15:01:29.332Z,68.54
2022-10-20T15:04:27.149Z,68.80
2022-10-20T15:07:13.649Z,69.06
2022-10-20T15:09:52.310Z,69.17
2022-10-20T15:12:24.579Z,69.35
2022-10-20T15:15:02.605Z,69.45
2022-10-20T15:17:40.286Z,69.60
2022-10-20T15:20:30.625Z,69.62
2022-10-20T15:23:16.815Z,69.97
2022-10-20T15:25:56.078Z,69.92
2022-10-20T15:28:40.615Z,70.21
2022-10-20T15:31:22.243Z,70.33
2022-10-20T15:33:51.744Z,70.28
2022-10-20T15:36:29.164Z,70.40
2022-10-20T15:38:57.771Z,70.52
2022-10-20T15:41:28.663Z,70.77
2022-10-20T15:44:02.617Z,70.83
2022-10-20T15:46:30.792Z,71.04
2022-10-20T15:48:58.911Z,71.11
2022-10-20T15:51:29.330Z,71.32
2022-10-20T15:53:58.579Z,71.46
2022-10-20T15:56:26.654Z,71.52
2022-10-20T15:58:54.964Z,71.60
2022-10-20T16:01:23.359Z,71.94
2022-10-20T16:03:51.552Z,71.98
2022-10-20T16:06:19.961Z,71.97
2022-10-20T16:08:50.104Z,72.09
2022-10-20T16:11:20.825Z,71.90
2022-10-20T16:13:49.295Z,72.13
2022-10-20T16:16:21.106Z,72.25
2022-10-20T16:18:49.370Z,72.68
2022-10-20T16:21:17.675Z,72.86
2022-10-20T16:23:45.792Z,72.96
2022-10-20T16:26:15.325Z,72.91
2022-10-20T16:28:44.383Z,72.87
2022-10-20T16:31:14.368Z,72.77
2022-10-20T16:33:43.325Z,72.87
2022-10-20T16:36:15.153Z,73.08
2022-10-20T16:38:43.777Z,73.37
2022-10-20T16:41:15.192Z,73.35
2022-10-20T16:43:45.466Z,73.40
2022-10-20T16:46:15.932Z,73.25
2022-10-20T16:48:47.702Z,73.32
2022-10-20T16:51:17.603Z,73.38
2022-10-20T16:53:45.676Z,73.36
2022-10-20T16:56:16.634Z,73.56
2022-10-20T16:58:48.642Z,73.78
2022-10-20T17:01:19.290Z,74.09
2022-10-20T17:03:49.429Z,74.26
2022-10-20T17:06:20.244Z,74.22
2022-10-20T17:08:48.575Z,74.48
2022-10-20T17:11:19.873Z,74.54
2022-10-20T17:13:48.497Z,74.60
2022-10-20T17:16:28.474Z,74.60
2022-10-20T17:18:59.068Z,74.81
2022-10-20T17:21:28.361Z,74.80
2022-10-20T17:23:56.982Z,74.69
2022-10-20T17:26:27.939Z,74.66
2022-10-20T17:28:57.806Z,74.49
2022-10-20T17:31:26.775Z,74.47
2022-10-20T17:33:56.457Z,74.31
2022-10-20T17:36:26.766Z,74.46
2022-10-20T17:38:57.704Z,74.55
2022-10-20T17:41:26.554Z,74.55
2022-10-20T17:43:54.860Z,74.86
2022-10-20T17:46:23.090Z,75.32
2022-10-20T17:48:51.152Z,75.22
2022-10-20T17:51:31.804Z,75.13
2022-10-20T17:54:04.179Z,74.87
2022-10-20T17:56:38.360Z,75.05
2022-10-20T17:59:08.720Z,75.23
2022-10-20T18:01:39.381Z,75.44
2022-10-20T18:04:13.207Z,75.52
2022-10-20T18:06:42.595Z,75.60
2022-10-20T18:09:14.061Z,75.75
2022-10-20T18:11:51.844Z,75.86
2022-10-20T18:14:20.108Z,75.87
2022-10-20T18:16:48.333Z,75.55
2022-10-20T18:19:18.700Z,75.55
2022-10-20T18:21:47.527Z,75.43
2022-10-20T18:24:17.530Z,75.54
2022-10-20T18:26:46.714Z,75.46
2022-10-20T18:29:16.432Z,75.63
2022-10-20T18:31:46.098Z,75.55
2022-10-20T18:34:23.495Z,75.55
2022-10-20T18:36:54.769Z,75.37
2022-10-20T18:39:23.413Z,75.46
2022-10-20T18:41:52.626Z,75.42
2022-10-20T18:44:21.047Z,75.71
2022-10-20T18:46:49.728Z,75.85
2022-10-20T18:49:21.233Z,75.93
2022-10-20T18:51:53.114Z,76.01
2022-10-20T18:54:23.379Z,76.11
2022-10-20T18:56:51.801Z,76.39
2022-10-20T18:59:20.458Z,76.68
2022-10-20T19:01:48.923Z,76.68
2022-10-20T19:04:19.768Z,76.77
2022-10-20T19:06:48.946Z,76.71
2022-10-20T19:09:20.127Z,76.77
2022-10-20T19:14:18.381Z,77.00
2022-10-20T19:16:47.157Z,76.97
2022-10-20T19:19:16.405Z,76.86
2022-10-20T19:21:45.359Z,76.79
2022-10-20T19:24:18.182Z,76.78
2022-10-20T19:26:57.244Z,76.89
2022-10-20T19:29:36.757Z,76.69
2022-10-20T19:32:06.377Z,76.80
2022-10-20T19:34:37.597Z,76.55
2022-10-20T19:37:06.552Z,76.45
2022-10-20T19:39:38.896Z,76.48
2022-10-20T19:42:08.311Z,76.57
2022-10-20T19:44:36.605Z,76.41
2022-10-20T19:47:06.284Z,76.20
2022-10-20T19:49:34.859Z,76.24
2022-10-20T19:52:04.339Z,76.18
2022-10-20T19:54:32.543Z,76.11
2022-10-20T19:57:00.631Z,76.17
2022-10-20T19:59:29.037Z,76.10
2022-10-20T20:01:57.319Z,76.16
2022-10-20T20:04:25.466Z,76.22
2022-10-20T20:06:56.253Z,76.17
2022-10-20T20:09:29.562Z,76.13
2022-10-20T20:11:58.410Z,76.23
2022-10-20T20:14:26.514Z,76.35
2022-10-20T20:16:54.646Z,76.35
2022-10-20T20:19:22.787Z,76.59
2022-10-20T20:21:50.824Z,76.56
2022-10-20T20:24:19.142Z,76.47
2022-10-20T20:26:47.353Z,76.68
2022-10-20T20:29:15.389Z,76.57
2022-10-20T20:31:43.906Z,76.61
2022-10-20T20:34:11.934Z,76.51
2022-10-20T20:36:39.971Z,76.67
2022-10-20T20:39:09.921Z,76.63
2022-10-20T20:41:38.219Z,76.84
2022-10-20T20:44:08.438Z,76.85
2022-10-20T20:46:37.201Z,76.82
2022-10-20T20:49:05.541Z,76.89
2022-10-20T20:51:34.097Z,76.86
2022-10-20T20:54:04.099Z,77.03
2022-10-20T20:56:32.423Z,76.84
2022-10-20T20:59:00.546Z,76.91
2022-10-20T21:01:34.083Z,76.82
2022-10-20T21:04:05.039Z,77.02
2022-10-20T21:06:49.536Z,77.11
2022-10-20T21:09:21.819Z,76.97
2022-10-20T21:11:49.963Z,77.01
2022-10-20T21:14:18.021Z,77.08
2022-10-20T21:16:46.608Z,77.22
2022-10-20T21:19:14.859Z,77.11
2022-10-20T21:21:47.253Z,77.20
2022-10-20T21:24:15.743Z,77.24
2022-10-20T21:26:43.989Z,77.31
2022-10-20T21:29:12.084Z,77.29
2022-10-20T21:31:40.931Z,77.45
2022-10-20T21:34:10.288Z,77.48
2022-10-20T21:36:40.270Z,77.50
2022-10-20T21:39:12.090Z,77.52
2022-10-20T21:41:40.389Z,77.37
2022-10-20T21:44:09.454Z,77.61
2022-10-20T21:46:42.319Z,77.64
2022-10-20T21:49:13.333Z,77.62
2022-10-20T21:51:45.595Z,77.62
2022-10-20T21:54:16.577Z,77.70
2022-10-20T21:56:46.975Z,77.75
2022-10-20T21:59:19.047Z,77.82
2022-10-20T22:01:48.929Z,77.73
2022-10-20T22:04:23.736Z,77.85
2022-10-20T22:06:52.124Z,77.80
2022-10-20T22:09:21.258Z,77.81
2022-10-20T22:11:52.399Z,77.93
2022-10-20T22:14:20.724Z,78.10
2022-10-20T22:16:48.862Z,78.06
2022-10-20T22:19:22.455Z,77.96
2022-10-20T22:21:52.533Z,78.09
2022-10-20T22:24:21.435Z,78.18
2022-10-20T22:26:51.863Z,78.14
2022-10-20T22:29:21.400Z,78.34
2022-10-20T22:31:50.150Z,78.36
2022-10-20T22:34:18.175Z,78.43
2022-10-20T22:36:46.728Z,78.36
2022-10-20T22:39:15.096Z,78.32
2022-10-20T22:41:43.542Z,78.47
2022-10-20T22:44:12.118Z,78.59
2022-10-20T22:46:40.124Z,78.46
2022-10-20T22:49:08.511Z,78.67
2022-10-20T22:51:36.696Z,78.63
2022-10-20T22:54:04.921Z,78.47
2022-10-20T22:56:32.985Z,78.57
2022-10-20T22:59:01.177Z,78.65
2022-10-20T23:01:29.409Z,78.67
2022-10-20T23:03:57.619Z,78.76
2022-10-20T23:06:26.526Z,78.71
2022-10-20T23:08:56.270Z,78.79
2022-10-20T23:11:24.888Z,78.76
2022-10-20T23:13:53.710Z,78.75
2022-10-20T23:16:22.079Z,78.69
2022-10-20T23:18:50.203Z,78.70
2022-10-20T23:21:18.879Z,78.66
2022-10-20T23:23:46.984Z,78.67
2022-10-20T23:26:15.288Z,78.93
2022-10-20T23:28:43.435Z,78.92
2022-10-20T23:31:13.733Z,78.98
2022-10-20T23:33:43.247Z,78.81
2022-10-20T23:36:13.125Z,78.92
2022-10-20T23:38:42.583Z,78.94
2022-10-20T23:41:10.856Z,78.91
2022-10-20T23:43:39.022Z,78.97
2022-10-20T23:46:07.885Z,78.94
2022-10-20T23:48:36.282Z,78.99
2022-10-20T23:51:06.011Z,79.01
2022-10-20T23:53:35.015Z,79.05
2022-10-20T23:56:03.818Z,79.04
2022-10-20T23:58:31.976Z,79.02
